sensor_id;sensor_type;location;lat;lon;timestamp;P1;durP1;ratioP1;P2;durP2;ratioP2
59766;SDS011;46248;58.364;25.582;2024-01-30T00:03:06;8.30;;;4.75;;
59766;SDS011;46248;58.364;25.582;2024-01-30T00:06:30;8.13;;;5.13;;
59766;SDS011;46248;58.364;25.582;2024-01-30T00:09:53;9.15;;;4.90;;
59766;SDS011;46248;58.364;25.582;2024-01-30T00:13:16;13.02;;;5.00;;
59766;SDS011;46248;58.364;25.582;2024-01-30T00:16:40;12.68;;;5.38;;
59766;SDS011;46248;58.364;25.582;2024-01-30T00:20:03;9.85;;;4.93;;
59766;SDS011;46248;58.364;25.582;2024-01-30T00:23:29;9.63;;;5.35;;
59766;SDS011;46248;58.364;25.582;2024-01-30T00:26:51;8.82;;;4.95;;
59766;SDS011;46248;58.364;25.582;2024-01-30T00:30:14;10.85;;;5.03;;
59766;SDS011;46248;58.364;25.582;2024-01-30T00:33:37;15.25;;;5.78;;
59766;SDS011;46248;58.364;25.582;2024-01-30T00:37:01;10.65;;;5.70;;
59766;SDS011;46248;58.364;25.582;2024-01-30T00:40:25;10.55;;;5.50;;
59766;SDS011;46248;58.364;25.582;2024-01-30T00:43:49;13.48;;;5.93;;
59766;SDS011;46248;58.364;25.582;2024-01-30T00:47:11;11.38;;;4.93;;
59766;SDS011;46248;58.364;25.582;2024-01-30T00:50:34;14.45;;;6.38;;
59766;SDS011;46248;58.364;25.582;2024-01-30T00:53:57;13.18;;;6.40;;
59766;SDS011;46248;58.364;25.582;2024-01-30T00:57:21;12.18;;;6.22;;
59766;SDS011;46248;58.364;25.582;2024-01-30T01:00:44;11.80;;;5.38;;
59766;SDS011;46248;58.364;25.582;2024-01-30T01:04:08;9.00;;;5.47;;
59766;SDS011;46248;58.364;25.582;2024-01-30T01:07:31;16.60;;;6.28;;
59766;SDS011;46248;58.364;25.582;2024-01-30T01:10:54;11.45;;;6.40;;
59766;SDS011;46248;58.364;25.582;2024-01-30T01:14:19;16.08;;;5.85;;
59766;SDS011;46248;58.364;25.582;2024-01-30T01:17:42;12.10;;;6.70;;
59766;SDS011;46248;58.364;25.582;2024-01-30T01:21:05;9.93;;;5.45;;
59766;SDS011;46248;58.364;25.582;2024-01-30T01:24:28;11.52;;;5.75;;
59766;SDS011;46248;58.364;25.582;2024-01-30T01:27:51;11.68;;;5.00;;
59766;SDS011;46248;58.364;25.582;2024-01-30T01:31:15;13.52;;;6.38;;
59766;SDS011;46248;58.364;25.582;2024-01-30T01:34:39;12.60;;;6.57;;
59766;SDS011;46248;58.364;25.582;2024-01-30T01:38:02;13.32;;;5.70;;
59766;SDS011;46248;58.364;25.582;2024-01-30T01:41:25;10.50;;;4.90;;
59766;SDS011;46248;58.364;25.582;2024-01-30T01:44:52;12.18;;;6.00;;
59766;SDS011;46248;58.364;25.582;2024-01-30T01:48:17;14.80;;;6.15;;
59766;SDS011;46248;58.364;25.582;2024-01-30T01:51:40;12.90;;;6.00;;
59766;SDS011;46248;58.364;25.582;2024-01-30T01:55:06;13.18;;;6.32;;
59766;SDS011;46248;58.364;25.582;2024-01-30T01:58:29;13.38;;;5.50;;
59766;SDS011;46248;58.364;25.582;2024-01-30T02:01:52;12.48;;;6.28;;
59766;SDS011;46248;58.364;25.582;2024-01-30T02:05:18;12.32;;;6.20;;
59766;SDS011;46248;58.364;25.582;2024-01-30T02:08:42;13.38;;;6.22;;
59766;SDS011;46248;58.364;25.582;2024-01-30T02:12:05;11.13;;;6.53;;
59766;SDS011;46248;58.364;25.582;2024-01-30T02:15:28;14.00;;;5.57;;
59766;SDS011;46248;58.364;25.582;2024-01-30T02:18:51;10.93;;;6.07;;
59766;SDS011;46248;58.364;25.582;2024-01-30T02:22:16;13.65;;;5.80;;
59766;SDS011;46248;58.364;25.582;2024-01-30T02:25:40;11.52;;;5.70;;
59766;SDS011;46248;58.364;25.582;2024-01-30T02:29:05;10.48;;;6.25;;
59766;SDS011;46248;58.364;25.582;2024-01-30T02:32:28;11.20;;;6.38;;
59766;SDS011;46248;58.364;25.582;2024-01-30T02:35:51;14.15;;;7.30;;
59766;SDS011;46248;58.364;25.582;2024-01-30T02:39:15;15.25;;;8.32;;
59766;SDS011;46248;58.364;25.582;2024-01-30T02:42:39;17.38;;;8.70;;
59766;SDS011;46248;58.364;25.582;2024-01-30T02:46:02;19.73;;;9.80;;
59766;SDS011;46248;58.364;25.582;2024-01-30T02:49:25;20.13;;;10.50;;
59766;SDS011;46248;58.364;25.582;2024-01-30T02:52:48;23.33;;;11.18;;
59766;SDS011;46248;58.364;25.582;2024-01-30T02:56:13;18.30;;;8.73;;
59766;SDS011;46248;58.364;25.582;2024-01-30T02:59:36;19.45;;;9.52;;
59766;SDS011;46248;58.364;25.582;2024-01-30T03:02:58;18.48;;;9.48;;
59766;SDS011;46248;58.364;25.582;2024-01-30T03:06:23;22.17;;;10.52;;
59766;SDS011;46248;58.364;25.582;2024-01-30T03:09:46;17.55;;;8.80;;
59766;SDS011;46248;58.364;25.582;2024-01-30T03:13:10;14.02;;;7.50;;
59766;SDS011;46248;58.364;25.582;2024-01-30T03:16:33;13.13;;;6.60;;
59766;SDS011;46248;58.364;25.582;2024-01-30T03:19:56;11.05;;;6.07;;
59766;SDS011;46248;58.364;25.582;2024-01-30T03:23:20;13.48;;;5.30;;
59766;SDS011;46248;58.364;25.582;2024-01-30T03:26:43;12.27;;;6.22;;
59766;SDS011;46248;58.364;25.582;2024-01-30T03:30:08;10.85;;;5.38;;
59766;SDS011;46248;58.364;25.582;2024-01-30T03:33:31;15.32;;;6.13;;
59766;SDS011;46248;58.364;25.582;2024-01-30T03:36:54;12.82;;;6.05;;
59766;SDS011;46248;58.364;25.582;2024-01-30T03:40:18;13.63;;;6.80;;
59766;SDS011;46248;58.364;25.582;2024-01-30T03:43:41;12.98;;;6.05;;
59766;SDS011;46248;58.364;25.582;2024-01-30T03:47:05;14.52;;;6.70;;
59766;SDS011;46248;58.364;25.582;2024-01-30T03:50:27;12.15;;;6.22;;
59766;SDS011;46248;58.364;25.582;2024-01-30T03:53:50;16.20;;;7.07;;
59766;SDS011;46248;58.364;25.582;2024-01-30T03:57:13;10.13;;;5.90;;
59766;SDS011;46248;58.364;25.582;2024-01-30T04:00:36;11.70;;;6.10;;
59766;SDS011;46248;58.364;25.582;2024-01-30T04:04:01;14.05;;;7.15;;
59766;SDS011;46248;58.364;25.582;2024-01-30T04:07:23;12.38;;;6.32;;
59766;SDS011;46248;58.364;25.582;2024-01-30T04:10:46;14.15;;;6.78;;
59766;SDS011;46248;58.364;25.582;2024-01-30T04:14:10;13.38;;;6.63;;
59766;SDS011;46248;58.364;25.582;2024-01-30T04:17:33;10.85;;;6.30;;
59766;SDS011;46248;58.364;25.582;2024-01-30T04:20:58;11.20;;;6.35;;
59766;SDS011;46248;58.364;25.582;2024-01-30T04:24:21;14.45;;;6.13;;
59766;SDS011;46248;58.364;25.582;2024-01-30T04:27:43;12.63;;;5.65;;
59766;SDS011;46248;58.364;25.582;2024-01-30T04:31:07;11.73;;;6.10;;
59766;SDS011;46248;58.364;25.582;2024-01-30T04:34:30;14.65;;;7.03;;
59766;SDS011;46248;58.364;25.582;2024-01-30T04:37:54;15.93;;;7.30;;
59766;SDS011;46248;58.364;25.582;2024-01-30T04:41:16;16.98;;;6.43;;
59766;SDS011;46248;58.364;25.582;2024-01-30T04:44:39;13.35;;;6.45;;
59766;SDS011;46248;58.364;25.582;2024-01-30T04:48:02;14.77;;;7.05;;
59766;SDS011;46248;58.364;25.582;2024-01-30T04:51:26;19.70;;;8.23;;
59766;SDS011;46248;58.364;25.582;2024-01-30T04:54:50;15.23;;;8.20;;
59766;SDS011;46248;58.364;25.582;2024-01-30T04:58:13;12.68;;;7.00;;
59766;SDS011;46248;58.364;25.582;2024-01-30T05:01:37;14.30;;;7.47;;
59766;SDS011;46248;58.364;25.582;2024-01-30T05:05:00;13.57;;;6.68;;
59766;SDS011;46248;58.364;25.582;2024-01-30T05:08:23;17.60;;;7.55;;
59766;SDS011;46248;58.364;25.582;2024-01-30T05:11:47;16.90;;;8.43;;
59766;SDS011;46248;58.364;25.582;2024-01-30T05:15:10;16.35;;;7.85;;
59766;SDS011;46248;58.364;25.582;2024-01-30T05:18:34;17.73;;;7.65;;
59766;SDS011;46248;58.364;25.582;2024-01-30T05:21:57;16.98;;;8.68;;
59766;SDS011;46248;58.364;25.582;2024-01-30T05:25:20;16.33;;;8.00;;
59766;SDS011;46248;58.364;25.582;2024-01-30T05:28:45;16.70;;;8.07;;
59766;SDS011;46248;58.364;25.582;2024-01-30T05:32:08;21.25;;;11.07;;
59766;SDS011;46248;58.364;25.582;2024-01-30T05:35:31;46.20;;;23.45;;
59766;SDS011;46248;58.364;25.582;2024-01-30T05:38:55;31.98;;;16.05;;
59766;SDS011;46248;58.364;25.582;2024-01-30T05:42:18;21.80;;;11.65;;
59766;SDS011;46248;58.364;25.582;2024-01-30T05:45:42;19.27;;;10.88;;
59766;SDS011;46248;58.364;25.582;2024-01-30T05:49:05;24.08;;;10.98;;
59766;SDS011;46248;58.364;25.582;2024-01-30T05:52:28;20.85;;;11.57;;
59766;SDS011;46248;58.364;25.582;2024-01-30T05:55:51;19.25;;;9.55;;
59766;SDS011;46248;58.364;25.582;2024-01-30T05:59:15;17.83;;;9.52;;
59766;SDS011;46248;58.364;25.582;2024-01-30T06:02:39;20.88;;;10.82;;
59766;SDS011;46248;58.364;25.582;2024-01-30T06:06:02;25.38;;;12.07;;
59766;SDS011;46248;58.364;25.582;2024-01-30T06:09:25;26.67;;;12.90;;
59766;SDS011;46248;58.364;25.582;2024-01-30T06:12:48;34.67;;;17.08;;
59766;SDS011;46248;58.364;25.582;2024-01-30T06:16:10;27.73;;;15.05;;
59766;SDS011;46248;58.364;25.582;2024-01-30T06:19:35;26.98;;;12.45;;
59766;SDS011;46248;58.364;25.582;2024-01-30T06:22:58;31.80;;;16.52;;
59766;SDS011;46248;58.364;25.582;2024-01-30T06:26:21;27.42;;;16.42;;
59766;SDS011;46248;58.364;25.582;2024-01-30T06:29:44;48.15;;;23.35;;
59766;SDS011;46248;58.364;25.582;2024-01-30T06:33:07;41.72;;;23.83;;
59766;SDS011;46248;58.364;25.582;2024-01-30T06:36:31;35.90;;;19.00;;
59766;SDS011;46248;58.364;25.582;2024-01-30T06:39:55;30.85;;;16.73;;
59766;SDS011;46248;58.364;25.582;2024-01-30T06:43:18;26.00;;;13.38;;
59766;SDS011;46248;58.364;25.582;2024-01-30T06:46:41;25.33;;;12.35;;
59766;SDS011;46248;58.364;25.582;2024-01-30T06:50:04;22.58;;;11.45;;
59766;SDS011;46248;58.364;25.582;2024-01-30T06:53:29;25.92;;;11.10;;
59766;SDS011;46248;58.364;25.582;2024-01-30T06:56:52;28.40;;;13.18;;
59766;SDS011;46248;58.364;25.582;2024-01-30T07:00:15;24.08;;;12.65;;
59766;SDS011;46248;58.364;25.582;2024-01-30T07:03:40;27.88;;;13.02;;
59766;SDS011;46248;58.364;25.582;2024-01-30T07:07:03;23.63;;;11.48;;
59766;SDS011;46248;58.364;25.582;2024-01-30T07:10:28;24.73;;;12.63;;
59766;SDS011;46248;58.364;25.582;2024-01-30T07:13:52;21.77;;;11.60;;
59766;SDS011;46248;58.364;25.582;2024-01-30T07:17:16;22.20;;;10.73;;
59766;SDS011;46248;58.364;25.582;2024-01-30T07:20:39;27.48;;;12.48;;
59766;SDS011;46248;58.364;25.582;2024-01-30T07:24:06;23.30;;;10.70;;
59766;SDS011;46248;58.364;25.582;2024-01-30T07:27:31;29.77;;;11.85;;
59766;SDS011;46248;58.364;25.582;2024-01-30T07:30:53;23.60;;;10.00;;
59766;SDS011;46248;58.364;25.582;2024-01-30T07:34:17;20.30;;;10.32;;
59766;SDS011;46248;58.364;25.582;2024-01-30T07:37:40;27.52;;;10.77;;
59766;SDS011;46248;58.364;25.582;2024-01-30T07:41:03;24.10;;;10.77;;
59766;SDS011;46248;58.364;25.582;2024-01-30T07:44:28;24.42;;;11.18;;
59766;SDS011;46248;58.364;25.582;2024-01-30T07:47:51;21.95;;;10.55;;
59766;SDS011;46248;58.364;25.582;2024-01-30T07:51:13;21.27;;;11.18;;
59766;SDS011;46248;58.364;25.582;2024-01-30T07:54:36;27.27;;;12.50;;
59766;SDS011;46248;58.364;25.582;2024-01-30T07:57:59;24.52;;;11.48;;
59766;SDS011;46248;58.364;25.582;2024-01-30T08:01:23;25.48;;;11.73;;
59766;SDS011;46248;58.364;25.582;2024-01-30T08:04:46;39.85;;;16.38;;
59766;SDS011;46248;58.364;25.582;2024-01-30T08:08:10;46.30;;;18.65;;
59766;SDS011;46248;58.364;25.582;2024-01-30T08:11:33;33.95;;;14.85;;
59766;SDS011;46248;58.364;25.582;2024-01-30T08:14:56;29.63;;;12.88;;
59766;SDS011;46248;58.364;25.582;2024-01-30T08:18:19;27.35;;;12.35;;
59766;SDS011;46248;58.364;25.582;2024-01-30T08:21:42;26.50;;;12.20;;
59766;SDS011;46248;58.364;25.582;2024-01-30T08:25:05;36.63;;;16.02;;
59766;SDS011;46248;58.364;25.582;2024-01-30T08:28:30;27.80;;;12.85;;
59766;SDS011;46248;58.364;25.582;2024-01-30T08:31:53;27.60;;;11.93;;
59766;SDS011;46248;58.364;25.582;2024-01-30T08:35:18;27.67;;;13.82;;
59766;SDS011;46248;58.364;25.582;2024-01-30T08:38:41;35.45;;;15.32;;
59766;SDS011;46248;58.364;25.582;2024-01-30T08:42:04;25.65;;;13.70;;
59766;SDS011;46248;58.364;25.582;2024-01-30T08:45:28;25.15;;;12.00;;
59766;SDS011;46248;58.364;25.582;2024-01-30T08:48:51;32.15;;;14.00;;
59766;SDS011;46248;58.364;25.582;2024-01-30T08:52:15;29.80;;;14.65;;
59766;SDS011;46248;58.364;25.582;2024-01-30T08:55:38;28.33;;;13.20;;
59766;SDS011;46248;58.364;25.582;2024-01-30T08:59:01;29.50;;;14.63;;
59766;SDS011;46248;58.364;25.582;2024-01-30T09:02:23;28.55;;;13.98;;
59766;SDS011;46248;58.364;25.582;2024-01-30T09:05:46;27.88;;;12.82;;
59766;SDS011;46248;58.364;25.582;2024-01-30T09:09:10;23.88;;;10.75;;
59766;SDS011;46248;58.364;25.582;2024-01-30T09:12:33;26.42;;;12.35;;
59766;SDS011;46248;58.364;25.582;2024-01-30T09:15:56;26.73;;;12.77;;
59766;SDS011;46248;58.364;25.582;2024-01-30T09:19:19;28.00;;;13.05;;
59766;SDS011;46248;58.364;25.582;2024-01-30T09:22:42;22.00;;;11.63;;
59766;SDS011;46248;58.364;25.582;2024-01-30T09:26:06;25.92;;;11.75;;
59766;SDS011;46248;58.364;25.582;2024-01-30T09:29:29;22.92;;;10.98;;
59766;SDS011;46248;58.364;25.582;2024-01-30T09:32:54;26.10;;;11.02;;
59766;SDS011;46248;58.364;25.582;2024-01-30T09:36:17;25.20;;;12.15;;
59766;SDS011;46248;58.364;25.582;2024-01-30T09:39:40;26.13;;;11.90;;
59766;SDS011;46248;58.364;25.582;2024-01-30T09:43:05;24.85;;;12.05;;
59766;SDS011;46248;58.364;25.582;2024-01-30T09:46:28;27.70;;;13.32;;
59766;SDS011;46248;58.364;25.582;2024-01-30T09:49:54;27.42;;;12.63;;
59766;SDS011;46248;58.364;25.582;2024-01-30T09:53:19;27.58;;;12.70;;
59766;SDS011;46248;58.364;25.582;2024-01-30T09:56:44;47.83;;;20.02;;
59766;SDS011;46248;58.364;25.582;2024-01-30T10:00:09;42.58;;;19.65;;
59766;SDS011;46248;58.364;25.582;2024-01-30T10:03:33;48.40;;;22.17;;
59766;SDS011;46248;58.364;25.582;2024-01-30T10:06:56;33.47;;;15.48;;
59766;SDS011;46248;58.364;25.582;2024-01-30T10:10:19;32.38;;;14.88;;
59766;SDS011;46248;58.364;25.582;2024-01-30T10:13:43;29.42;;;13.75;;
59766;SDS011;46248;58.364;25.582;2024-01-30T10:17:08;28.02;;;13.35;;
59766;SDS011;46248;58.364;25.582;2024-01-30T10:20:43;28.40;;;12.15;;
59766;SDS011;46248;58.364;25.582;2024-01-30T10:24:07;27.33;;;13.05;;
59766;SDS011;46248;58.364;25.582;2024-01-30T10:27:30;34.33;;;15.20;;
59766;SDS011;46248;58.364;25.582;2024-01-30T10:30:57;32.92;;;15.63;;
59766;SDS011;46248;58.364;25.582;2024-01-30T10:34:26;32.60;;;16.45;;
59766;SDS011;46248;58.364;25.582;2024-01-30T10:37:50;28.88;;;13.98;;
59766;SDS011;46248;58.364;25.582;2024-01-30T10:41:14;27.52;;;13.52;;
59766;SDS011;46248;58.364;25.582;2024-01-30T10:44:44;29.77;;;13.07;;
59766;SDS011;46248;58.364;25.582;2024-01-30T10:48:11;23.90;;;10.80;;
59766;SDS011;46248;58.364;25.582;2024-01-30T10:51:36;29.15;;;13.00;;
59766;SDS011;46248;58.364;25.582;2024-01-30T10:55:01;30.98;;;14.68;;
59766;SDS011;46248;58.364;25.582;2024-01-30T10:58:27;30.40;;;13.20;;
59766;SDS011;46248;58.364;25.582;2024-01-30T11:01:50;28.60;;;12.98;;
59766;SDS011;46248;58.364;25.582;2024-01-30T11:05:14;30.05;;;13.82;;
59766;SDS011;46248;58.364;25.582;2024-01-30T11:08:55;30.08;;;13.60;;
59766;SDS011;46248;58.364;25.582;2024-01-30T11:12:25;28.60;;;12.50;;
59766;SDS011;46248;58.364;25.582;2024-01-30T11:15:49;30.75;;;13.65;;
59766;SDS011;46248;58.364;25.582;2024-01-30T11:19:12;27.90;;;12.52;;
59766;SDS011;46248;58.364;25.582;2024-01-30T11:22:35;27.23;;;13.20;;
59766;SDS011;46248;58.364;25.582;2024-01-30T11:26:00;33.97;;;15.20;;
59766;SDS011;46248;58.364;25.582;2024-01-30T11:29:24;27.45;;;11.80;;
59766;SDS011;46248;58.364;25.582;2024-01-30T11:32:46;27.98;;;12.20;;
59766;SDS011;46248;58.364;25.582;2024-01-30T11:36:23;31.42;;;14.05;;
59766;SDS011;46248;58.364;25.582;2024-01-30T11:39:48;31.10;;;12.27;;
59766;SDS011;46248;58.364;25.582;2024-01-30T11:43:13;28.15;;;12.70;;
59766;SDS011;46248;58.364;25.582;2024-01-30T11:46:37;25.48;;;11.52;;
59766;SDS011;46248;58.364;25.582;2024-01-30T11:50:01;28.90;;;11.73;;
59766;SDS011;46248;58.364;25.582;2024-01-30T11:53:24;28.13;;;11.95;;
59766;SDS011;46248;58.364;25.582;2024-01-30T11:56:47;29.27;;;12.20;;
59766;SDS011;46248;58.364;25.582;2024-01-30T12:00:16;29.75;;;11.60;;
59766;SDS011;46248;58.364;25.582;2024-01-30T12:03:41;36.88;;;15.95;;
59766;SDS011;46248;58.364;25.582;2024-01-30T12:07:04;32.78;;;14.82;;
59766;SDS011;46248;58.364;25.582;2024-01-30T12:10:27;28.83;;;12.32;;
59766;SDS011;46248;58.364;25.582;2024-01-30T12:13:51;37.53;;;16.02;;
59766;SDS011;46248;58.364;25.582;2024-01-30T12:17:24;39.50;;;17.92;;
59766;SDS011;46248;58.364;25.582;2024-01-30T12:20:56;44.05;;;18.92;;
59766;SDS011;46248;58.364;25.582;2024-01-30T12:24:21;36.25;;;16.38;;
59766;SDS011;46248;58.364;25.582;2024-01-30T12:27:45;39.83;;;17.83;;
59766;SDS011;46248;58.364;25.582;2024-01-30T12:31:11;43.28;;;18.25;;
59766;SDS011;46248;58.364;25.582;2024-01-30T12:34:39;43.25;;;16.35;;
59766;SDS011;46248;58.364;25.582;2024-01-30T12:38:16;29.58;;;14.70;;
59766;SDS011;46248;58.364;25.582;2024-01-30T12:41:39;37.13;;;15.02;;
59766;SDS011;46248;58.364;25.582;2024-01-30T12:45:03;31.35;;;13.88;;
59766;SDS011;46248;58.364;25.582;2024-01-30T12:48:28;31.83;;;14.30;;
59766;SDS011;46248;58.364;25.582;2024-01-30T12:51:53;39.75;;;15.80;;
59766;SDS011;46248;58.364;25.582;2024-01-30T12:55:17;35.78;;;14.32;;
59766;SDS011;46248;58.364;25.582;2024-01-30T12:58:41;39.33;;;17.58;;
59766;SDS011;46248;58.364;25.582;2024-01-30T13:02:07;38.78;;;15.60;;
59766;SDS011;46248;58.364;25.582;2024-01-30T13:05:30;43.88;;;16.40;;
59766;SDS011;46248;58.364;25.582;2024-01-30T13:08:54;32.88;;;13.98;;
59766;SDS011;46248;58.364;25.582;2024-01-30T13:12:18;35.53;;;15.45;;
59766;SDS011;46248;58.364;25.582;2024-01-30T13:15:41;35.47;;;13.98;;
59766;SDS011;46248;58.364;25.582;2024-01-30T13:19:04;45.92;;;17.13;;
59766;SDS011;46248;58.364;25.582;2024-01-30T13:22:27;33.13;;;14.52;;
59766;SDS011;46248;58.364;25.582;2024-01-30T13:25:51;35.95;;;13.88;;
59766;SDS011;46248;58.364;25.582;2024-01-30T13:29:18;40.63;;;14.90;;
59766;SDS011;46248;58.364;25.582;2024-01-30T13:32:41;33.83;;;14.38;;
59766;SDS011;46248;58.364;25.582;2024-01-30T13:36:05;34.28;;;13.35;;
59766;SDS011;46248;58.364;25.582;2024-01-30T13:39:29;35.58;;;13.90;;
59766;SDS011;46248;58.364;25.582;2024-01-30T13:42:59;37.08;;;14.13;;
59766;SDS011;46248;58.364;25.582;2024-01-30T13:46:22;41.45;;;15.70;;
59766;SDS011;46248;58.364;25.582;2024-01-30T13:49:45;43.15;;;15.70;;
59766;SDS011;46248;58.364;25.582;2024-01-30T13:53:09;40.13;;;15.23;;
59766;SDS011;46248;58.364;25.582;2024-01-30T13:56:34;38.72;;;15.27;;
59766;SDS011;46248;58.364;25.582;2024-01-30T13:59:58;46.03;;;14.95;;
59766;SDS011;46248;58.364;25.582;2024-01-30T14:03:21;60.53;;;18.38;;
59766;SDS011;46248;58.364;25.582;2024-01-30T14:06:44;38.90;;;14.48;;
59766;SDS011;46248;58.364;25.582;2024-01-30T14:10:19;38.67;;;14.65;;
59766;SDS011;46248;58.364;25.582;2024-01-30T14:13:42;35.35;;;14.07;;
59766;SDS011;46248;58.364;25.582;2024-01-30T14:17:07;41.15;;;15.00;;
59766;SDS011;46248;58.364;25.582;2024-01-30T14:20:30;37.80;;;14.93;;
59766;SDS011;46248;58.364;25.582;2024-01-30T14:23:53;48.30;;;16.75;;
59766;SDS011;46248;58.364;25.582;2024-01-30T14:27:16;47.22;;;16.73;;
59766;SDS011;46248;58.364;25.582;2024-01-30T14:30:39;36.97;;;16.15;;
59766;SDS011;46248;58.364;25.582;2024-01-30T14:34:03;40.03;;;14.55;;
59766;SDS011;46248;58.364;25.582;2024-01-30T14:37:26;38.65;;;15.52;;
59766;SDS011;46248;58.364;25.582;2024-01-30T14:40:50;39.25;;;15.20;;
59766;SDS011;46248;58.364;25.582;2024-01-30T14:44:13;43.60;;;15.20;;
59766;SDS011;46248;58.364;25.582;2024-01-30T14:47:36;38.33;;;15.23;;
59766;SDS011;46248;58.364;25.582;2024-01-30T14:51:01;43.03;;;15.02;;
59766;SDS011;46248;58.364;25.582;2024-01-30T14:54:23;38.83;;;15.50;;
59766;SDS011;46248;58.364;25.582;2024-01-30T14:57:46;42.47;;;15.57;;
59766;SDS011;46248;58.364;25.582;2024-01-30T15:01:10;42.65;;;14.65;;
59766;SDS011;46248;58.364;25.582;2024-01-30T15:04:33;39.05;;;14.48;;
59766;SDS011;46248;58.364;25.582;2024-01-30T15:07:58;36.00;;;14.70;;
59766;SDS011;46248;58.364;25.582;2024-01-30T15:11:21;38.25;;;14.77;;
59766;SDS011;46248;58.364;25.582;2024-01-30T15:14:43;43.67;;;16.30;;
59766;SDS011;46248;58.364;25.582;2024-01-30T15:18:11;39.15;;;14.88;;
59766;SDS011;46248;58.364;25.582;2024-01-30T15:21:34;35.58;;;13.35;;
59766;SDS011;46248;58.364;25.582;2024-01-30T15:24:58;38.13;;;14.52;;
59766;SDS011;46248;58.364;25.582;2024-01-30T15:28:33;42.50;;;16.05;;
59766;SDS011;46248;58.364;25.582;2024-01-30T15:31:57;51.35;;;19.13;;
59766;SDS011;46248;58.364;25.582;2024-01-30T15:35:20;47.78;;;17.52;;
59766;SDS011;46248;58.364;25.582;2024-01-30T15:38:43;43.85;;;15.40;;
59766;SDS011;46248;58.364;25.582;2024-01-30T15:42:07;49.08;;;17.40;;
59766;SDS011;46248;58.364;25.582;2024-01-30T15:45:30;45.00;;;16.20;;
59766;SDS011;46248;58.364;25.582;2024-01-30T15:48:53;44.85;;;16.02;;
59766;SDS011;46248;58.364;25.582;2024-01-30T15:52:15;50.53;;;16.08;;
59766;SDS011;46248;58.364;25.582;2024-01-30T15:55:38;54.10;;;17.27;;
59766;SDS011;46248;58.364;25.582;2024-01-30T15:59:02;53.53;;;18.08;;
59766;SDS011;46248;58.364;25.582;2024-01-30T16:02:26;49.83;;;17.90;;
59766;SDS011;46248;58.364;25.582;2024-01-30T16:05:50;47.00;;;16.25;;
59766;SDS011;46248;58.364;25.582;2024-01-30T16:09:12;43.38;;;17.13;;
59766;SDS011;46248;58.364;25.582;2024-01-30T16:12:36;66.38;;;19.95;;
59766;SDS011;46248;58.364;25.582;2024-01-30T16:16:04;48.78;;;16.80;;
59766;SDS011;46248;58.364;25.582;2024-01-30T16:19:27;57.00;;;21.17;;
59766;SDS011;46248;58.364;25.582;2024-01-30T16:22:50;54.63;;;17.45;;
59766;SDS011;46248;58.364;25.582;2024-01-30T16:26:15;61.38;;;21.00;;
59766;SDS011;46248;58.364;25.582;2024-01-30T16:29:40;81.10;;;28.45;;
59766;SDS011;46248;58.364;25.582;2024-01-30T16:33:04;75.53;;;26.27;;
59766;SDS011;46248;58.364;25.582;2024-01-30T16:36:27;61.80;;;22.00;;
59766;SDS011;46248;58.364;25.582;2024-01-30T16:39:50;65.85;;;26.67;;
59766;SDS011;46248;58.364;25.582;2024-01-30T16:43:13;48.00;;;18.42;;
59766;SDS011;46248;58.364;25.582;2024-01-30T16:46:36;60.70;;;22.45;;
59766;SDS011;46248;58.364;25.582;2024-01-30T16:50:02;45.85;;;19.17;;
59766;SDS011;46248;58.364;25.582;2024-01-30T16:53:25;52.50;;;21.90;;
59766;SDS011;46248;58.364;25.582;2024-01-30T16:56:49;42.92;;;18.10;;
59766;SDS011;46248;58.364;25.582;2024-01-30T17:00:12;36.88;;;15.93;;
59766;SDS011;46248;58.364;25.582;2024-01-30T17:03:35;39.17;;;16.55;;
59766;SDS011;46248;58.364;25.582;2024-01-30T17:07:04;37.78;;;17.80;;
59766;SDS011;46248;58.364;25.582;2024-01-30T17:10:27;37.90;;;16.50;;
59766;SDS011;46248;58.364;25.582;2024-01-30T17:13:52;37.97;;;15.68;;
59766;SDS011;46248;58.364;25.582;2024-01-30T17:17:15;35.13;;;15.98;;
59766;SDS011;46248;58.364;25.582;2024-01-30T17:20:37;40.45;;;14.98;;
59766;SDS011;46248;58.364;25.582;2024-01-30T17:24:02;46.15;;;16.05;;
59766;SDS011;46248;58.364;25.582;2024-01-30T17:27:25;65.43;;;20.05;;
59766;SDS011;46248;58.364;25.582;2024-01-30T17:30:48;42.60;;;15.20;;
59766;SDS011;46248;58.364;25.582;2024-01-30T17:34:11;43.55;;;16.25;;
59766;SDS011;46248;58.364;25.582;2024-01-30T17:37:35;39.42;;;15.00;;
59766;SDS011;46248;58.364;25.582;2024-01-30T17:41:01;35.50;;;14.30;;
59766;SDS011;46248;58.364;25.582;2024-01-30T17:44:32;39.92;;;16.20;;
59766;SDS011;46248;58.364;25.582;2024-01-30T17:48:01;43.03;;;17.30;;
59766;SDS011;46248;58.364;25.582;2024-01-30T17:51:24;41.63;;;16.27;;
59766;SDS011;46248;58.364;25.582;2024-01-30T17:54:47;40.90;;;16.88;;
59766;SDS011;46248;58.364;25.582;2024-01-30T17:58:15;37.67;;;15.90;;
59766;SDS011;46248;58.364;25.582;2024-01-30T18:01:38;41.00;;;15.18;;
59766;SDS011;46248;58.364;25.582;2024-01-30T18:05:01;38.88;;;15.63;;
59766;SDS011;46248;58.364;25.582;2024-01-30T18:08:26;37.88;;;14.57;;
59766;SDS011;46248;58.364;25.582;2024-01-30T18:11:49;40.95;;;14.98;;
59766;SDS011;46248;58.364;25.582;2024-01-30T18:15:14;41.35;;;15.40;;
59766;SDS011;46248;58.364;25.582;2024-01-30T18:18:37;32.65;;;13.60;;
59766;SDS011;46248;58.364;25.582;2024-01-30T18:22:00;38.05;;;15.40;;
59766;SDS011;46248;58.364;25.582;2024-01-30T18:25:23;40.55;;;14.85;;
59766;SDS011;46248;58.364;25.582;2024-01-30T18:28:46;41.50;;;16.73;;
59766;SDS011;46248;58.364;25.582;2024-01-30T18:32:10;37.28;;;16.08;;
59766;SDS011;46248;58.364;25.582;2024-01-30T18:35:33;41.97;;;15.07;;
59766;SDS011;46248;58.364;25.582;2024-01-30T18:38:56;38.45;;;15.23;;
59766;SDS011;46248;58.364;25.582;2024-01-30T18:42:19;43.45;;;15.85;;
59766;SDS011;46248;58.364;25.582;2024-01-30T18:45:42;39.92;;;15.00;;
59766;SDS011;46248;58.364;25.582;2024-01-30T18:49:06;36.20;;;15.80;;
59766;SDS011;46248;58.364;25.582;2024-01-30T18:52:29;42.80;;;14.50;;
59766;SDS011;46248;58.364;25.582;2024-01-30T18:55:52;40.00;;;14.90;;
59766;SDS011;46248;58.364;25.582;2024-01-30T18:59:14;54.08;;;19.17;;
59766;SDS011;46248;58.364;25.582;2024-01-30T19:02:38;54.88;;;19.83;;
59766;SDS011;46248;58.364;25.582;2024-01-30T19:06:03;47.08;;;16.95;;
59766;SDS011;46248;58.364;25.582;2024-01-30T19:09:27;52.88;;;17.75;;
59766;SDS011;46248;58.364;25.582;2024-01-30T19:12:50;42.25;;;16.70;;
59766;SDS011;46248;58.364;25.582;2024-01-30T19:16:13;38.80;;;15.65;;
59766;SDS011;46248;58.364;25.582;2024-01-30T19:19:36;41.55;;;16.38;;
59766;SDS011;46248;58.364;25.582;2024-01-30T19:23:02;42.80;;;16.08;;
59766;SDS011;46248;58.364;25.582;2024-01-30T19:26:25;44.25;;;18.23;;
59766;SDS011;46248;58.364;25.582;2024-01-30T19:29:48;43.88;;;17.40;;
59766;SDS011;46248;58.364;25.582;2024-01-30T19:33:12;40.92;;;16.67;;
59766;SDS011;46248;58.364;25.582;2024-01-30T19:36:36;43.17;;;18.90;;
59766;SDS011;46248;58.364;25.582;2024-01-30T19:40:01;36.53;;;16.20;;
59766;SDS011;46248;58.364;25.582;2024-01-30T19:43:24;36.22;;;15.20;;